createdAt,value
2022-09-26T00:01:29.558Z,8.60
2022-09-26T00:03:58.812Z,8.70
2022-09-26T00:06:26.424Z,8.70
2022-09-26T00:08:54.187Z,8.70
2022-09-26T00:11:24.057Z,8.70
2022-09-26T00:13:56.367Z,8.70
2022-09-26T00:16:24.074Z,8.70
2022-09-26T00:18:53.946Z,8.70
2022-09-26T00:21:21.654Z,8.80
2022-09-26T00:23:49.100Z,8.80
2022-09-26T00:26:47.464Z,8.70
2022-09-26T00:29:14.581Z,8.80
2022-09-26T00:31:45.718Z,8.70
2022-09-26T00:34:18.652Z,8.70
2022-09-26T00:36:45.364Z,8.70
2022-09-26T00:39:14.393Z,8.60
2022-09-26T00:41:41.242Z,8.60
2022-09-26T00:44:34.196Z,8.50
2022-09-26T00:47:01.771Z,8.50
2022-09-26T00:49:37.382Z,8.60
2022-09-26T00:52:10.121Z,8.50
2022-09-26T00:54:38.143Z,8.50
2022-09-26T00:57:11.936Z,8.50
2022-09-26T00:59:50.309Z,8.40
2022-09-26T01:02:17.911Z,8.40
2022-09-26T01:04:46.792Z,8.30
2022-09-26T01:07:22.002Z,8.30
2022-09-26T01:09:49.110Z,8.30
2022-09-26T01:12:17.492Z,8.40
2022-09-26T01:14:46.749Z,8.40
2022-09-26T01:17:14.960Z,8.40
2022-09-26T01:20:07.975Z,8.60
2022-09-26T01:22:53.383Z,8.70
2022-09-26T01:26:04.374Z,8.70
2022-09-26T01:28:59.003Z,8.70
2022-09-26T01:31:40.355Z,8.80
2022-09-26T01:34:15.873Z,8.90
2022-09-26T01:37:02.553Z,9.00
2022-09-26T01:39:35.102Z,9.20
2022-09-26T01:42:11.995Z,9.20
2022-09-26T01:44:53.221Z,9.20
2022-09-26T01:47:27.565Z,9.20
2022-09-26T01:49:58.669Z,9.30
2022-09-26T01:52:38.032Z,9.30
2022-09-26T01:55:23.039Z,9.30
2022-09-26T01:58:06.458Z,9.30
2022-09-26T02:00:36.425Z,9.40
2022-09-26T02:03:09.312Z,9.30
2022-09-26T02:05:41.608Z,9.30
2022-09-26T02:08:18.824Z,9.30
2022-09-26T02:10:52.822Z,9.40
2022-09-26T02:13:28.668Z,9.30
2022-09-26T02:16:00.869Z,9.40
2022-09-26T02:19:04.264Z,9.50
2022-09-26T02:21:31.844Z,9.40
2022-09-26T02:23:58.566Z,9.50
2022-09-26T02:26:25.504Z,9.50
2022-09-26T02:28:52.356Z,9.50
2022-09-26T02:31:24.481Z,9.50
2022-09-26T02:33:53.176Z,9.50
2022-09-26T02:36:21.602Z,9.50
2022-09-26T02:38:48.378Z,9.50
2022-09-26T02:42:17.362Z,9.50
2022-09-26T02:45:21.842Z,9.60
2022-09-26T02:48:24.607Z,9.60
2022-09-26T02:51:17.521Z,9.70
2022-09-26T02:54:10.439Z,9.70
2022-09-26T02:56:52.413Z,9.80
2022-09-26T02:59:36.397Z,9.90
2022-09-26T03:02:17.328Z,10.00
2022-09-26T03:05:12.568Z,10.00
2022-09-26T03:07:51.149Z,10.10
2022-09-26T03:10:19.564Z,10.10
2022-09-26T03:12:47.912Z,10.10
2022-09-26T03:15:17.061Z,10.00
2022-09-26T03:17:51.511Z,10.00
2022-09-26T03:20:22.570Z,10.00
2022-09-26T03:22:51.992Z,10.00
2022-09-26T03:25:22.353Z,10.00
2022-09-26T03:27:57.081Z,10.10
2022-09-26T03:30:24.060Z,10.10
2022-09-26T03:33:10.685Z,10.10
2022-09-26T03:35:37.586Z,10.10
2022-09-26T03:38:04.363Z,10.10
2022-09-26T03:40:36.669Z,10.10
2022-09-26T03:43:24.192Z,10.10
2022-09-26T03:45:52.204Z,10.00
2022-09-26T03:48:23.843Z,10.00
2022-09-26T03:50:50.581Z,10.10
2022-09-26T03:53:17.306Z,10.10
2022-09-26T03:55:43.951Z,10.10
2022-09-26T03:58:10.627Z,10.10
2022-09-26T04:00:42.516Z,10.10
2022-09-26T04:03:10.353Z,10.00
2022-09-26T04:05:40.097Z,10.00
2022-09-26T04:08:07.656Z,10.00
2022-09-26T04:10:35.769Z,10.00
2022-09-26T04:13:03.093Z,10.00
2022-09-26T04:15:29.923Z,10.00
2022-09-26T04:18:04.593Z,9.90
2022-09-26T04:20:31.777Z,9.90
2022-09-26T04:22:59.681Z,9.90
2022-09-26T04:25:26.539Z,9.90
2022-09-26T04:27:53.264Z,9.90
2022-09-26T04:30:20.084Z,9.90
2022-09-26T04:32:55.312Z,9.90
2022-09-26T04:35:44.663Z,9.90
2022-09-26T04:38:11.871Z,10.00
2022-09-26T04:40:42.648Z,10.10
2022-09-26T04:43:10.846Z,10.00
2022-09-26T04:45:42.136Z,10.10
2022-09-26T04:48:15.388Z,10.10
2022-09-26T04:50:41.999Z,10.20
2022-09-26T04:53:12.138Z,10.20
2022-09-26T04:55:46.719Z,10.20
2022-09-26T04:58:16.055Z,10.20
2022-09-26T05:00:45.620Z,10.30
2022-09-26T05:03:14.343Z,10.30
2022-09-26T05:05:41.940Z,10.30
2022-09-26T05:08:10.610Z,10.40
2022-09-26T05:10:37.789Z,10.40
2022-09-26T05:13:04.674Z,10.40
2022-09-26T05:15:31.759Z,10.40
2022-09-26T05:18:00.046Z,10.50
2022-09-26T05:20:31.449Z,10.50
2022-09-26T05:23:04.101Z,10.50
2022-09-26T05:25:56.461Z,10.50
2022-09-26T05:28:24.546Z,10.50
2022-09-26T05:30:52.574Z,10.50
2022-09-26T05:33:19.824Z,10.50
2022-09-26T05:35:54.801Z,10.60
2022-09-26T05:38:21.908Z,10.60
2022-09-26T05:40:56.464Z,10.60
2022-09-26T05:43:27.465Z,10.70
2022-09-26T05:46:04.847Z,10.70
2022-09-26T05:48:37.509Z,10.80
2022-09-26T05:51:14.868Z,10.80
2022-09-26T05:53:45.273Z,10.80
2022-09-26T05:56:19.018Z,10.80
2022-09-26T05:59:05.514Z,10.80
2022-09-26T06:01:51.959Z,10.80
2022-09-26T06:04:34.151Z,10.80
2022-09-26T06:07:26.264Z,10.80
2022-09-26T06:09:53.312Z,10.80
2022-09-26T06:12:32.095Z,10.80
2022-09-26T06:14:59.374Z,10.90
2022-09-26T06:17:26.344Z,10.90
2022-09-26T06:19:53.646Z,11.00
2022-09-26T06:22:20.368Z,11.00
2022-09-26T06:24:48.190Z,11.10
2022-09-26T06:27:15.937Z,11.10
2022-09-26T06:29:42.884Z,11.10
2022-09-26T06:32:09.620Z,11.20
2022-09-26T06:34:51.837Z,11.20
2022-09-26T06:37:39.246Z,11.30
2022-09-26T06:40:08.923Z,11.30
2022-09-26T06:42:37.863Z,11.30
2022-09-26T06:45:18.050Z,11.40
2022-09-26T06:48:08.507Z,11.50
2022-09-26T06:51:00.261Z,11.60
2022-09-26T06:53:29.157Z,11.70
2022-09-26T06:55:59.413Z,11.90
2022-09-26T06:58:27.576Z,12.10
2022-09-26T07:01:02.054Z,12.10
2022-09-26T07:03:45.822Z,12.10
2022-09-26T07:06:26.589Z,12.00
2022-09-26T07:09:03.105Z,12.00
2022-09-26T07:12:12.925Z,12.00
2022-09-26T07:14:33.280Z,12.00
2022-09-26T07:17:07.862Z,12.10
2022-09-26T07:19:53.125Z,12.10
2022-09-26T07:22:43.524Z,12.10
2022-09-26T07:25:11.859Z,12.20
2022-09-26T07:27:39.845Z,12.30
2022-09-26T07:30:09.013Z,12.40
2022-09-26T07:32:47.815Z,12.40
2022-09-26T07:35:35.321Z,12.50
2022-09-26T07:38:02.461Z,12.60
2022-09-26T07:40:29.496Z,12.70
2022-09-26T07:43:19.596Z,12.80
2022-09-26T07:46:10.598Z,12.80
2022-09-26T07:48:57.299Z,12.80
2022-09-26T07:51:57.477Z,13.00
2022-09-26T07:54:37.527Z,13.20
2022-09-26T07:57:22.988Z,13.30
2022-09-26T08:00:13.854Z,13.20
2022-09-26T08:02:52.663Z,13.20
2022-09-26T08:05:20.126Z,13.10
2022-09-26T08:07:49.187Z,12.90
2022-09-26T08:10:35.302Z,12.80
2022-09-26T08:13:21.268Z,12.90
2022-09-26T08:16:04.531Z,13.00
2022-09-26T08:18:33.417Z,13.10
2022-09-26T08:21:03.339Z,13.20
2022-09-26T08:23:31.056Z,13.20
2022-09-26T08:26:16.739Z,13.30
2022-09-26T08:28:47.447Z,13.50
2022-09-26T08:31:14.278Z,13.60
2022-09-26T08:33:42.032Z,13.70
2022-09-26T08:36:11.991Z,13.60
2022-09-26T08:39:04.733Z,13.70
2022-09-26T08:42:00.660Z,13.70
2022-09-26T08:44:45.724Z,13.90
2022-09-26T08:47:53.122Z,14.00
2022-09-26T08:50:48.656Z,14.00
2022-09-26T08:53:22.693Z,13.80
2022-09-26T08:55:56.811Z,13.60
2022-09-26T08:58:32.261Z,13.50
2022-09-26T09:01:04.259Z,13.50
2022-09-26T09:04:09.749Z,13.70
2022-09-26T09:06:36.988Z,13.80
2022-09-26T09:09:05.460Z,13.90
2022-09-26T09:11:58.981Z,14.00
2022-09-26T09:14:41.437Z,13.90
2022-09-26T09:17:31.197Z,13.90
2022-09-26T09:20:43.059Z,13.90
2022-09-26T09:24:25.646Z,14.00
2022-09-26T09:30:16.435Z,14.10
2022-09-26T09:33:17.685Z,14.00
2022-09-26T09:36:15.904Z,13.90
2022-09-26T09:38:52.977Z,13.90
2022-09-26T09:41:40.084Z,13.90
2022-09-26T09:44:30.685Z,13.80
2022-09-26T09:46:58.347Z,13.90
2022-09-26T09:49:25.341Z,13.90
2022-09-26T09:52:31.538Z,14.00
2022-09-26T09:55:06.502Z,14.10
2022-09-26T09:58:15.306Z,14.10
2022-09-26T10:00:51.582Z,14.10
2022-09-26T10:03:28.720Z,13.90
2022-09-26T10:06:01.117Z,13.80
2022-09-26T10:08:41.402Z,13.90
2022-09-26T10:11:41.674Z,13.80
2022-09-26T10:14:33.955Z,13.60
2022-09-26T10:17:09.678Z,13.40
2022-09-26T10:20:40.043Z,13.30
2022-09-26T10:23:28.846Z,13.10
2022-09-26T10:26:04.195Z,13.10
2022-09-26T10:28:48.595Z,13.00
2022-09-26T10:31:35.999Z,12.70
2022-09-26T10:34:32.947Z,12.60
2022-09-26T10:37:18.960Z,12.60
2022-09-26T10:40:20.334Z,12.60
2022-09-26T10:43:07.986Z,12.60
2022-09-26T10:45:35.360Z,12.50
2022-09-26T10:48:48.775Z,12.40
2022-09-26T10:51:42.595Z,12.40
2022-09-26T10:54:16.317Z,12.30
2022-09-26T10:56:47.945Z,12.30
2022-09-26T10:59:18.751Z,12.30
2022-09-26T11:01:50.450Z,12.30
2022-09-26T11:04:41.404Z,12.30
2022-09-26T11:07:33.917Z,12.20
2022-09-26T11:10:23.887Z,12.20
2022-09-26T11:13:18.031Z,12.20
2022-09-26T11:15:53.454Z,12.20
2022-09-26T11:18:30.919Z,12.10
2022-09-26T11:21:14.452Z,12.10
2022-09-26T11:24:11.703Z,12.20
2022-09-26T11:27:03.249Z,12.30
2022-09-26T11:29:41.941Z,12.30
2022-09-26T11:32:18.129Z,12.40
2022-09-26T11:34:45.251Z,12.50
2022-09-26T11:37:30.992Z,12.50
2022-09-26T11:40:22.474Z,12.50
2022-09-26T11:42:55.459Z,12.40
2022-09-26T11:45:49.313Z,12.40
2022-09-26T11:48:56.517Z,12.40
2022-09-26T11:52:02.813Z,12.30
2022-09-26T11:54:58.782Z,12.20
2022-09-26T11:58:03.224Z,12.20
2022-09-26T12:00:50.285Z,12.10
2022-09-26T12:03:43.528Z,12.20
2022-09-26T12:06:33.388Z,12.30
2022-09-26T12:09:34.784Z,12.20
2022-09-26T12:12:26.796Z,12.20
2022-09-26T12:15:20.256Z,12.10
2022-09-26T12:18:14.706Z,12.10
2022-09-26T12:21:07.594Z,12.10
2022-09-26T12:23:57.267Z,12.00
2022-09-26T12:26:39.760Z,12.00
2022-09-26T12:29:45.533Z,12.00
2022-09-26T12:32:41.890Z,12.00
2022-09-26T12:35:31.367Z,12.00
2022-09-26T12:38:32.394Z,11.90
2022-09-26T12:41:18.365Z,11.90
2022-09-26T12:43:49.584Z,11.90
2022-09-26T12:46:43.187Z,11.90
2022-09-26T12:49:23.425Z,11.90
2022-09-26T12:51:55.034Z,11.90
2022-09-26T12:54:55.067Z,11.90
2022-09-26T12:57:48.937Z,11.90
2022-09-26T13:00:21.978Z,11.90
2022-09-26T13:03:40.954Z,11.90
2022-09-26T13:06:27.377Z,11.80
2022-09-26T13:09:15.955Z,11.90
2022-09-26T13:12:00.584Z,11.80
2022-09-26T13:14:50.677Z,11.80
2022-09-26T13:17:22.173Z,11.80
2022-09-26T13:20:14.723Z,11.80
2022-09-26T13:22:47.677Z,11.80
2022-09-26T13:25:29.806Z,11.80
2022-09-26T13:28:05.111Z,11.90
2022-09-26T13:30:54.816Z,11.90
2022-09-26T13:33:33.709Z,11.90
2022-09-26T13:36:04.482Z,11.90
2022-09-26T13:38:45.930Z,12.00
2022-09-26T13:41:42.688Z,12.10
2022-09-26T13:44:28.899Z,12.10
2022-09-26T13:47:30.094Z,12.30
2022-09-26T13:50:25.607Z,12.30
2022-09-26T13:53:08.569Z,12.50
2022-09-26T13:55:36.397Z,12.50
2022-09-26T13:58:27.095Z,12.60
2022-09-26T14:00:53.858Z,12.70
2022-09-26T14:03:20.537Z,12.80
2022-09-26T14:05:50.886Z,12.90
2022-09-26T14:08:45.635Z,13.00
2022-09-26T14:11:44.989Z,13.10
2022-09-26T14:14:21.435Z,13.00
2022-09-26T14:16:50.272Z,13.10
2022-09-26T14:19:22.742Z,13.00
2022-09-26T14:22:03.183Z,13.00
2022-09-26T14:24:36.316Z,13.10
2022-09-26T14:27:10.537Z,13.10
2022-09-26T14:29:40.207Z,13.10
2022-09-26T14:32:10.523Z,13.00
2022-09-26T14:34:55.668Z,13.00
2022-09-26T14:37:23.985Z,13.00
2022-09-26T14:40:00.145Z,12.80
2022-09-26T14:42:39.692Z,12.70
2022-09-26T14:45:31.945Z,12.60
2022-09-26T14:48:16.177Z,12.50
2022-09-26T14:51:02.277Z,12.50
2022-09-26T14:53:42.410Z,12.50
2022-09-26T14:56:38.116Z,12.50
2022-09-26T14:59:36.063Z,12.60
2022-09-26T15:02:19.905Z,12.60
2022-09-26T15:04:53.184Z,12.70
2022-09-26T15:07:27.075Z,12.60
2022-09-26T15:10:03.336Z,12.60
2022-09-26T15:12:47.963Z,12.50
2022-09-26T15:15:41.484Z,12.60
2022-09-26T15:18:19.771Z,12.50
2022-09-26T15:20:52.012Z,12.60
2022-09-26T15:23:31.943Z,12.60
2022-09-26T15:26:02.523Z,12.70
2022-09-26T15:28:34.494Z,12.70
2022-09-26T15:31:20.564Z,12.70
2022-09-26T15:33:56.979Z,12.70
2022-09-26T15:36:27.070Z,12.80
2022-09-26T15:38:53.789Z,12.80
2022-09-26T15:41:39.300Z,12.80
2022-09-26T15:44:07.631Z,12.70
2022-09-26T15:46:34.400Z,12.70
2022-09-26T15:49:01.456Z,12.60
2022-09-26T15:51:38.154Z,12.60
2022-09-26T15:54:10.840Z,12.50
2022-09-26T15:56:45.173Z,12.50
2022-09-26T15:59:20.082Z,12.40
2022-09-26T16:01:52.123Z,12.30
2022-09-26T16:04:32.559Z,12.20
2022-09-26T16:07:05.221Z,12.10
2022-09-26T16:09:34.873Z,12.10
2022-09-26T16:12:16.335Z,12.10
2022-09-26T16:14:59.828Z,12.10
2022-09-26T16:17:32.363Z,12.10
2022-09-26T16:20:05.073Z,12.10
2022-09-26T16:22:44.551Z,12.10
2022-09-26T16:25:28.370Z,12.10
2022-09-26T16:28:00.909Z,12.10
2022-09-26T16:30:28.067Z,12.20
2022-09-26T16:33:02.901Z,12.20
2022-09-26T16:35:33.402Z,12.20
2022-09-26T16:38:07.567Z,12.20
2022-09-26T16:40:35.665Z,12.20
2022-09-26T16:43:19.150Z,12.20
2022-09-26T16:46:00.734Z,12.20
2022-09-26T16:48:49.637Z,12.20
2022-09-26T16:51:24.725Z,12.10
2022-09-26T16:54:17.115Z,12.10
2022-09-26T16:56:45.293Z,12.10
2022-09-26T16:59:26.657Z,12.00
2022-09-26T17:01:56.006Z,12.00
2022-09-26T17:04:31.407Z,12.00
2022-09-26T17:06:59.166Z,12.00
2022-09-26T17:09:29.586Z,11.90
2022-09-26T17:12:08.421Z,11.80
2022-09-26T17:14:40.570Z,11.70
2022-09-26T17:17:17.749Z,11.60
2022-09-26T17:19:47.551Z,11.50
2022-09-26T17:22:16.637Z,11.50
2022-09-26T17:24:44.075Z,11.40
2022-09-26T17:27:22.655Z,11.40
2022-09-26T17:29:51.392Z,11.40
2022-09-26T17:32:30.687Z,11.40
2022-09-26T17:35:02.192Z,11.40
2022-09-26T17:37:29.187Z,11.30
2022-09-26T17:39:56.349Z,11.30
2022-09-26T17:42:23.468Z,11.30
2022-09-26T17:44:50.510Z,11.20
2022-09-26T17:47:19.023Z,11.10
2022-09-26T17:49:55.952Z,11.10
2022-09-26T17:52:26.830Z,11.10
2022-09-26T17:54:57.458Z,11.00
2022-09-26T17:57:28.838Z,11.00
2022-09-26T17:59:56.499Z,11.00
2022-09-26T18:02:26.018Z,10.90
2022-09-26T18:04:54.468Z,10.90
2022-09-26T18:07:22.341Z,10.90
2022-09-26T18:09:50.877Z,10.90
2022-09-26T18:12:21.894Z,11.00
2022-09-26T18:14:49.315Z,10.90
2022-09-26T18:17:16.289Z,10.90
2022-09-26T18:19:43.777Z,10.90
2022-09-26T18:22:18.849Z,10.80
2022-09-26T18:24:50.720Z,10.80
2022-09-26T18:27:17.877Z,10.80
2022-09-26T18:29:47.263Z,10.80
2022-09-26T18:32:19.466Z,10.80
2022-09-26T18:34:46.263Z,10.80
2022-09-26T18:37:12.897Z,10.80
2022-09-26T18:39:39.507Z,10.80
2022-09-26T18:42:11.253Z,10.80
2022-09-26T18:44:55.033Z,10.80
2022-09-26T18:47:32.181Z,10.70
2022-09-26T18:53:29.471Z,10.80
2022-09-26T18:56:20.532Z,10.80
2022-09-26T18:58:52.916Z,10.80
2022-09-26T19:01:40.553Z,10.70
2022-09-26T19:04:16.931Z,10.70
2022-09-26T19:06:46.741Z,10.70
2022-09-26T19:09:23.709Z,10.70
2022-09-26T19:12:08.050Z,10.60
2022-09-26T19:14:55.024Z,10.60
2022-09-26T19:17:21.966Z,10.60
2022-09-26T19:19:48.652Z,10.60
2022-09-26T19:22:22.496Z,10.60
2022-09-26T19:25:00.392Z,10.60
2022-09-26T19:27:29.942Z,10.60
2022-09-26T19:30:04.381Z,10.60
2022-09-26T19:32:32.847Z,10.50
2022-09-26T19:35:07.027Z,10.50
2022-09-26T19:37:34.044Z,10.50
2022-09-26T19:40:01.514Z,10.50
2022-09-26T19:42:30.261Z,10.50
2022-09-26T19:45:06.097Z,10.50
2022-09-26T19:47:57.725Z,10.50
2022-09-26T19:50:35.227Z,10.50
2022-09-26T19:53:12.511Z,10.40
2022-09-26T19:55:39.452Z,10.40
2022-09-26T19:58:21.169Z,10.40
2022-09-26T20:00:50.495Z,10.40
2022-09-26T20:03:19.549Z,10.40
2022-09-26T20:05:47.652Z,10.40
2022-09-26T20:08:19.331Z,10.40
2022-09-26T20:10:46.390Z,10.30
2022-09-26T20:13:14.871Z,10.30
2022-09-26T20:15:51.555Z,10.40
2022-09-26T20:18:24.514Z,10.30
2022-09-26T20:20:56.749Z,10.30
2022-09-26T20:23:53.010Z,10.30
2022-09-26T20:26:50.392Z,10.30
2022-09-26T20:30:03.315Z,10.30
2022-09-26T20:32:34.730Z,10.30
2022-09-26T20:38:05.780Z,10.30
2022-09-26T20:40:35.792Z,10.30
2022-09-26T20:43:07.151Z,10.20
2022-09-26T20:45:40.600Z,10.20
2022-09-26T20:48:16.394Z,10.30
2022-09-26T20:50:43.036Z,10.20
2022-09-26T20:53:19.907Z,10.20
2022-09-26T20:55:48.168Z,10.20
2022-09-26T20:58:15.140Z,10.20
2022-09-26T21:00:43.198Z,10.20
2022-09-26T21:03:21.862Z,10.20
2022-09-26T21:05:48.557Z,10.20
2022-09-26T21:08:25.882Z,10.20
2022-09-26T21:10:52.644Z,10.20
2022-09-26T21:13:19.388Z,10.20
2022-09-26T21:15:46.237Z,10.20
2022-09-26T21:18:33.274Z,10.20
2022-09-26T21:21:05.543Z,10.20
2022-09-26T21:23:53.974Z,10.20
2022-09-26T21:26:23.518Z,10.20
2022-09-26T21:28:52.139Z,10.20
2022-09-26T21:31:31.525Z,10.20
2022-09-26T21:33:59.993Z,10.20
2022-09-26T21:36:35.116Z,10.20
2022-09-26T21:39:02.289Z,10.20
2022-09-26T21:41:29.443Z,10.20
2022-09-26T21:44:04.226Z,10.20
2022-09-26T21:46:31.373Z,10.20
2022-09-26T21:48:58.152Z,10.20
2022-09-26T21:51:27.840Z,10.20
2022-09-26T21:54:02.559Z,10.20
2022-09-26T21:56:33.555Z,10.30
2022-09-26T21:59:00.236Z,10.20
2022-09-26T22:01:27.013Z,10.30
2022-09-26T22:03:54.028Z,10.20
2022-09-26T22:06:20.688Z,10.30
2022-09-26T22:08:47.355Z,10.30
2022-09-26T22:11:14.368Z,10.30
2022-09-26T22:13:41.248Z,10.30
2022-09-26T22:16:12.881Z,10.30
2022-09-26T22:18:40.391Z,10.30
2022-09-26T22:21:08.973Z,10.30
2022-09-26T22:23:36.543Z,10.30
2022-09-26T22:26:06.507Z,10.30
2022-09-26T22:28:33.306Z,10.30
2022-09-26T22:31:01.774Z,10.30
2022-09-26T22:33:28.585Z,10.30
2022-09-26T22:35:55.264Z,10.30
2022-09-26T22:38:21.946Z,10.30
2022-09-26T22:40:59.845Z,10.30
2022-09-26T22:43:27.543Z,10.30
2022-09-26T22:46:04.293Z,10.30
2022-09-26T22:48:32.912Z,10.40
2022-09-26T22:50:59.888Z,10.30
2022-09-26T22:53:26.517Z,10.30
2022-09-26T22:55:54.851Z,10.40
2022-09-26T22:58:25.932Z,10.30
2022-09-26T23:00:52.670Z,10.40
2022-09-26T23:03:19.410Z,10.30
2022-09-26T23:05:51.151Z,10.30
2022-09-26T23:08:17.800Z,10.40
2022-09-26T23:10:51.886Z,10.30
2022-09-26T23:13:19.066Z,10.40
2022-09-26T23:15:46.093Z,10.40
2022-09-26T23:18:13.442Z,10.40
2022-09-26T23:20:42.075Z,10.40
2022-09-26T23:23:10.377Z,10.40
2022-09-26T23:25:44.483Z,10.40
2022-09-26T23:28:11.231Z,10.40
2022-09-26T23:30:38.449Z,10.40
2022-09-26T23:33:05.659Z,10.50
2022-09-26T23:35:32.401Z,10.40
2022-09-26T23:37:59.034Z,10.40
2022-09-26T23:40:25.786Z,10.40
2022-09-26T23:42:52.468Z,10.40
2022-09-26T23:45:19.112Z,10.40
2022-09-26T23:47:45.917Z,10.50
2022-09-26T23:50:12.645Z,10.50
2022-09-26T23:52:40.290Z,10.50
2022-09-26T23:55:08.023Z,10.50
2022-09-26T23:57:34.690Z,10.50
